Time;durP1;ratioP1;P1;durP2;ratioP2;P2;SDS_P1;SDS_P2;PMS_P1;PMS_P2;Temp;Humidity;BMP_temperature;BMP_pressure;BME280_temperature;BME280_humidity;BME280_pressure;Samples;Min_cycle;Max_cycle;Signal;HPM_P1;HPM_P2
2021/09/01 00:00:59;;;;;;;;;;;19.50;99.90;;;;;;5009198;28;20415;-69
2021/09/01 00:03:24;;;;;;;;;;;19.50;99.90;;;;;;5010095;28;20011;-69
2021/09/01 00:05:50;;;;;;;;;;;19.40;99.90;;;;;;5010627;28;19978;-71
2021/09/01 00:08:16;;;;;;;;;;;19.30;99.90;;;;;;5009790;28;20287;-74
2021/09/01 00:10:41;;;;;;;;;;;19.30;99.90;;;;;;5009616;28;19909;-68
2021/09/01 00:13:07;;;;;;;;;;;19.40;99.90;;;;;;5007393;28;19917;-71
2021/09/01 00:15:33;;;;;;;;;;;19.50;99.90;;;;;;5010319;28;20047;-69
2021/09/01 00:17:58;;;;;;;;;;;19.50;99.90;;;;;;5009718;28;19910;-70
2021/09/01 00:20:26;;;;;;;;;;;19.60;99.90;;;;;;5009525;28;19917;-69
2021/09/01 00:22:52;;;;;;;;;;;19.60;99.90;;;;;;5007494;28;20027;-69
2021/09/01 00:25:18;;;;;;;;;;;19.50;99.90;;;;;;5010705;28;19978;-68
2021/09/01 00:27:43;;;;;;;;;;;19.40;99.90;;;;;;5007413;28;20031;-69
2021/09/01 00:30:09;;;;;;;;;;;19.40;99.90;;;;;;5010189;28;19924;-70
2021/09/01 00:32:35;;;;;;;;;;;19.40;99.90;;;;;;5009485;28;19913;-69
2021/09/01 00:35:01;;;;;;;;;;;19.30;99.90;;;;;;5009056;28;20426;-69
2021/09/01 00:37:26;;;;;;;;;;;19.30;99.90;;;;;;5006254;28;19909;-70
2021/09/01 00:39:52;;;;;;;;;;;19.10;99.90;;;;;;5010681;28;20340;-70
2021/09/01 00:42:17;;;;;;;;;;;19.10;99.90;;;;;;5009211;28;19963;-70
2021/09/01 00:44:45;;;;;;;;;;;19.10;99.90;;;;;;5009433;28;19962;-71
2021/09/01 00:47:14;;;;;;;;;;;19.10;99.90;;;;;;5010156;28;19909;-72
2021/09/01 00:49:43;;;;;;;;;;;19.10;99.90;;;;;;5006001;28;19914;-70
2021/09/01 00:52:08;;;;;;;;;;;19.00;99.90;;;;;;5025095;28;19932;-71
2021/09/01 00:54:34;;;;;;;;;;;19.00;99.90;;;;;;5007388;28;19913;-70
2021/09/01 00:57:04;;;;;;;;;;;19.00;99.90;;;;;;5025610;28;20500;-69
2021/09/01 00:59:34;;;;;;;;;;;19.10;99.90;;;;;;5008013;28;19948;-70
2021/09/01 01:02:01;;;;;;;;;;;19.10;99.90;;;;;;5009442;28;20371;-70
2021/09/01 01:04:27;;;;;;;;;;;19.20;99.90;;;;;;5006137;28;19920;-70
2021/09/01 01:06:57;;;;;;;;;;;19.20;99.90;;;;;;5010092;28;19913;-70
2021/09/01 01:09:23;;;;;;;;;;;19.20;99.90;;;;;;5010376;28;19916;-71
2021/09/01 01:11:59;;;;;;;;;;;19.20;99.90;;;;;;5009147;28;19909;-70
2021/09/01 01:14:24;;;;;;;;;;;19.20;99.90;;;;;;5008752;28;19914;-70
2021/09/01 01:16:50;;;;;;;;;;;19.00;99.90;;;;;;5009945;28;20114;-71
2021/09/01 01:19:18;;;;;;;;;;;19.00;99.90;;;;;;5008842;28;20000;-71
2021/09/01 01:21:44;;;;;;;;;;;18.90;99.90;;;;;;5007929;28;19913;-71
2021/09/01 01:24:10;;;;;;;;;;;18.80;99.90;;;;;;5003247;28;20381;-72
2021/09/01 01:26:35;;;;;;;;;;;18.80;99.90;;;;;;5008722;28;19909;-70
2021/09/01 01:29:03;;;;;;;;;;;18.80;99.90;;;;;;5008087;28;20012;-70
2021/09/01 01:31:28;;;;;;;;;;;18.70;99.90;;;;;;5009170;28;19972;-71
2021/09/01 01:33:54;;;;;;;;;;;18.60;99.90;;;;;;5023738;28;19956;-71
2021/09/01 01:36:20;;;;;;;;;;;18.80;99.90;;;;;;5008359;28;20328;-72
2021/09/01 01:38:45;;;;;;;;;;;18.80;99.90;;;;;;5004509;28;20280;-71
2021/09/01 01:41:11;;;;;;;;;;;18.80;99.90;;;;;;5010591;28;20279;-71
2021/09/01 01:43:37;;;;;;;;;;;18.80;99.90;;;;;;5007900;28;20052;-69
2021/09/01 01:46:05;;;;;;;;;;;18.90;99.90;;;;;;5008567;28;20280;-69
2021/09/01 01:48:31;;;;;;;;;;;18.80;99.90;;;;;;5009406;28;19953;-69
2021/09/01 01:50:56;;;;;;;;;;;18.80;99.90;;;;;;5007340;28;19948;-69
2021/09/01 01:53:22;;;;;;;;;;;18.90;99.90;;;;;;5009018;28;20016;-70
2021/09/01 01:55:47;;;;;;;;;;;18.90;99.90;;;;;;5008407;28;19955;-71
2021/09/01 01:58:13;;;;;;;;;;;19.00;99.90;;;;;;5007166;28;20368;-71
2021/09/01 02:00:39;;;;;;;;;;;19.00;99.90;;;;;;5003849;28;19932;-70
2021/09/01 02:03:05;;;;;;;;;;;18.90;99.90;;;;;;5008074;28;19921;-70
2021/09/01 02:05:30;;;;;;;;;;;18.90;99.90;;;;;;5008934;28;19912;-70
2021/09/01 02:07:56;;;;;;;;;;;18.80;99.90;;;;;;5006654;28;20270;-70
2021/09/01 02:10:21;;;;;;;;;;;18.80;99.90;;;;;;5009711;28;19994;-73
2021/09/01 02:12:47;;;;;;;;;;;18.80;99.90;;;;;;5007470;28;19917;-69
2021/09/01 02:15:13;;;;;;;;;;;18.70;99.90;;;;;;5008110;28;19916;-70
2021/09/01 02:17:40;;;;;;;;;;;18.70;99.90;;;;;;5019073;28;19914;-70
2021/09/01 02:20:06;;;;;;;;;;;18.80;99.90;;;;;;5006834;28;19909;-70
2021/09/01 02:22:32;;;;;;;;;;;18.70;99.90;;;;;;5004377;28;19910;-70
2021/09/01 02:24:57;;;;;;;;;;;18.70;99.90;;;;;;5010241;28;19916;-70
2021/09/01 02:27:23;;;;;;;;;;;18.70;99.90;;;;;;5007054;28;19918;-70
2021/09/01 02:29:48;;;;;;;;;;;18.70;99.90;;;;;;5006463;28;19916;-71
2021/09/01 02:32:15;;;;;;;;;;;18.70;99.90;;;;;;5007804;28;19921;-71
2021/09/01 02:34:40;;;;;;;;;;;18.60;99.90;;;;;;5007177;28;19909;-71
2021/09/01 02:37:06;;;;;;;;;;;18.60;99.90;;;;;;5008289;28;19917;-70
2021/09/01 02:39:32;;;;;;;;;;;18.60;99.90;;;;;;5010556;28;19939;-69
2021/09/01 02:41:57;;;;;;;;;;;18.50;99.90;;;;;;5011406;28;19916;-71
2021/09/01 02:44:23;;;;;;;;;;;18.50;99.90;;;;;;5010944;28;20404;-71
2021/09/01 02:46:49;;;;;;;;;;;18.50;99.90;;;;;;5011513;28;20343;-71
2021/09/01 02:49:14;;;;;;;;;;;18.50;99.90;;;;;;5012259;28;19996;-70
2021/09/01 02:51:40;;;;;;;;;;;18.50;99.90;;;;;;5011781;28;19916;-71
2021/09/01 02:54:09;;;;;;;;;;;18.50;99.90;;;;;;5010884;28;19940;-70
2021/09/01 02:56:35;;;;;;;;;;;18.50;99.90;;;;;;5007405;28;19920;-69
2021/09/01 02:59:00;;;;;;;;;;;18.60;99.90;;;;;;5011866;28;19906;-70
2021/09/01 03:01:26;;;;;;;;;;;18.50;99.90;;;;;;5011428;28;19921;-70
2021/09/01 03:03:51;;;;;;;;;;;18.50;99.90;;;;;;5012257;28;19920;-71
2021/09/01 03:06:17;;;;;;;;;;;18.50;99.90;;;;;;5012252;28;19944;-71
2021/09/01 03:08:42;;;;;;;;;;;18.40;99.90;;;;;;5011724;28;19905;-71
2021/09/01 03:11:08;;;;;;;;;;;18.40;99.90;;;;;;5010232;28;20518;-71
2021/09/01 03:13:34;;;;;;;;;;;18.40;99.90;;;;;;5009417;28;19997;-71
2021/09/01 03:15:59;;;;;;;;;;;18.40;99.90;;;;;;5011798;28;19916;-69
2021/09/01 03:18:25;;;;;;;;;;;18.40;99.90;;;;;;5008582;28;20007;-69
2021/09/01 03:20:51;;;;;;;;;;;18.50;99.90;;;;;;5013542;28;20004;-71
2021/09/01 03:23:16;;;;;;;;;;;18.70;99.90;;;;;;5011056;28;20191;-71
2021/09/01 03:25:43;;;;;;;;;;;18.90;99.90;;;;;;5011504;28;20287;-70
2021/09/01 03:28:08;;;;;;;;;;;19.10;99.90;;;;;;5011069;28;19913;-71
2021/09/01 03:30:34;;;;;;;;;;;19.20;99.90;;;;;;5011620;28;19913;-70
2021/09/01 03:33:00;;;;;;;;;;;19.20;99.90;;;;;;5005371;28;19909;-70
2021/09/01 03:35:25;;;;;;;;;;;19.30;99.90;;;;;;5008879;28;19909;-70
2021/09/01 03:37:51;;;;;;;;;;;19.30;99.90;;;;;;5012289;28;19935;-70
2021/09/01 03:40:16;;;;;;;;;;;19.30;99.90;;;;;;5011883;28;19920;-70
2021/09/01 03:42:42;;;;;;;;;;;19.40;99.90;;;;;;5009523;28;19909;-72
2021/09/01 03:45:08;;;;;;;;;;;19.40;99.90;;;;;;5005178;28;19917;-69
2021/09/01 03:47:34;;;;;;;;;;;19.40;99.90;;;;;;5007917;28;19910;-68
2021/09/01 03:50:00;;;;;;;;;;;19.40;99.90;;;;;;5011001;28;19910;-69
2021/09/01 03:52:25;;;;;;;;;;;19.30;99.90;;;;;;5010358;28;20000;-70
2021/09/01 03:54:53;;;;;;;;;;;19.30;99.90;;;;;;5011930;28;19917;-71
2021/09/01 03:57:19;;;;;;;;;;;19.30;99.90;;;;;;5009533;28;21566;-72
2021/09/01 03:59:44;;;;;;;;;;;19.40;99.90;;;;;;5009329;28;19909;-70
2021/09/01 04:02:10;;;;;;;;;;;19.30;99.90;;;;;;5009007;28;19909;-71
2021/09/01 04:04:35;;;;;;;;;;;19.40;99.90;;;;;;5011718;28;19920;-70
2021/09/01 04:07:04;;;;;;;;;;;19.40;99.90;;;;;;5011635;28;20315;-69
2021/09/01 04:09:30;;;;;;;;;;;19.40;99.90;;;;;;5026646;28;20405;-71
2021/09/01 04:11:56;;;;;;;;;;;19.40;99.90;;;;;;5011833;28;20008;-70
2021/09/01 04:14:22;;;;;;;;;;;19.50;99.90;;;;;;5007731;28;20383;-71
2021/09/01 04:16:47;;;;;;;;;;;19.50;99.90;;;;;;5010595;28;19916;-70
2021/09/01 04:19:14;;;;;;;;;;;19.50;99.90;;;;;;5009904;28;20368;-73
2021/09/01 04:21:39;;;;;;;;;;;19.50;99.90;;;;;;5006729;28;20325;-71
2021/09/01 04:24:05;;;;;;;;;;;19.60;99.90;;;;;;5011693;28;19909;-70
2021/09/01 04:26:31;;;;;;;;;;;19.60;99.90;;;;;;5009969;28;19960;-70
2021/09/01 04:28:56;;;;;;;;;;;19.60;99.90;;;;;;5007632;28;19909;-71
2021/09/01 04:31:22;;;;;;;;;;;19.60;99.90;;;;;;5009658;28;19963;-71
2021/09/01 04:33:48;;;;;;;;;;;19.60;99.90;;;;;;5006654;28;20403;-70
2021/09/01 04:36:13;;;;;;;;;;;19.70;99.90;;;;;;5011006;28;19923;-70
2021/09/01 04:38:39;;;;;;;;;;;19.70;99.90;;;;;;5010425;28;20370;-71
2021/09/01 04:41:04;;;;;;;;;;;19.70;99.90;;;;;;5009588;28;19909;-71
2021/09/01 04:43:30;;;;;;;;;;;19.70;99.90;;;;;;5008643;28;19921;-71
2021/09/01 04:45:55;;;;;;;;;;;19.80;99.90;;;;;;5009418;28;19913;-70
2021/09/01 04:48:21;;;;;;;;;;;19.80;99.90;;;;;;5009071;28;19909;-71
2021/09/01 04:50:47;;;;;;;;;;;19.80;99.90;;;;;;5008215;28;19909;-69
2021/09/01 04:53:12;;;;;;;;;;;19.90;99.90;;;;;;5009949;28;19910;-71
2021/09/01 04:55:38;;;;;;;;;;;19.90;99.90;;;;;;5009373;28;19916;-69
2021/09/01 04:58:03;;;;;;;;;;;20.00;99.90;;;;;;5010707;28;19936;-71
2021/09/01 05:00:29;;;;;;;;;;;20.00;99.90;;;;;;5009679;28;20390;-70
2021/09/01 05:02:55;;;;;;;;;;;20.10;99.90;;;;;;5011157;28;19913;-71
2021/09/01 05:05:20;;;;;;;;;;;20.10;99.90;;;;;;5009506;28;19917;-70
2021/09/01 05:07:46;;;;;;;;;;;20.10;99.90;;;;;;5011708;28;19991;-70
2021/09/01 05:10:11;;;;;;;;;;;20.10;99.90;;;;;;5009575;28;19956;-71
2021/09/01 05:12:37;;;;;;;;;;;20.10;99.90;;;;;;5007494;28;19992;-71
2021/09/01 05:15:03;;;;;;;;;;;20.10;99.90;;;;;;5008308;28;19909;-71
2021/09/01 05:17:29;;;;;;;;;;;20.00;99.90;;;;;;5005573;28;19917;-70
2021/09/01 05:19:54;;;;;;;;;;;20.00;99.90;;;;;;5008723;28;20398;-69
2021/09/01 05:22:21;;;;;;;;;;;19.90;99.90;;;;;;5007845;28;19909;-69
2021/09/01 05:24:59;;;;;;;;;;;19.80;99.90;;;;;;5010518;28;19916;-71
2021/09/01 05:27:25;;;;;;;;;;;19.70;99.90;;;;;;5008144;28;19971;-73
2021/09/01 05:29:51;;;;;;;;;;;19.70;99.90;;;;;;5009935;28;19949;-71
2021/09/01 05:32:17;;;;;;;;;;;19.70;99.90;;;;;;5007846;28;20328;-72
2021/09/01 05:34:42;;;;;;;;;;;19.70;99.90;;;;;;5009984;28;19918;-70
2021/09/01 05:37:10;;;;;;;;;;;19.80;99.90;;;;;;5008590;28;19915;-73
2021/09/01 05:39:35;;;;;;;;;;;19.80;99.90;;;;;;5009833;28;19909;-70
2021/09/01 05:42:01;;;;;;;;;;;19.80;99.90;;;;;;5010249;28;19909;-71
2021/09/01 05:44:27;;;;;;;;;;;19.80;99.90;;;;;;5006857;28;19928;-70
2021/09/01 05:46:53;;;;;;;;;;;19.90;99.90;;;;;;5005097;28;20386;-70
2021/09/01 05:49:21;;;;;;;;;;;19.90;99.90;;;;;;5008490;28;19917;-70
2021/09/01 05:51:47;;;;;;;;;;;19.90;99.90;;;;;;5009958;28;19916;-72
2021/09/01 05:54:13;;;;;;;;;;;20.00;99.90;;;;;;5008879;28;20292;-70
2021/09/01 05:56:39;;;;;;;;;;;19.90;99.90;;;;;;5009230;28;19925;-70
2021/09/01 05:59:11;;;;;;;;;;;20.10;99.90;;;;;;5009722;28;20371;-72
2021/09/01 06:01:39;;;;;;;;;;;20.10;99.90;;;;;;5009685;28;19909;-71
2021/09/01 06:04:07;;;;;;;;;;;20.20;99.90;;;;;;5009615;28;21207;-72
2021/09/01 06:06:35;;;;;;;;;;;20.20;99.90;;;;;;5008274;28;19909;-70
2021/09/01 06:09:01;;;;;;;;;;;20.40;99.90;;;;;;5009277;28;20007;-69
2021/09/01 06:11:28;;;;;;;;;;;20.50;99.90;;;;;;5009539;28;20433;-69
2021/09/01 06:14:03;;;;;;;;;;;20.60;99.90;;;;;;5006679;28;20004;-72
2021/09/01 06:16:34;;;;;;;;;;;20.70;99.90;;;;;;5006655;28;20371;-68
2021/09/01 06:19:00;;;;;;;;;;;20.70;99.90;;;;;;5010511;28;20000;-72
2021/09/01 06:21:26;;;;;;;;;;;20.80;99.90;;;;;;5013137;28;20517;-71
2021/09/01 06:23:54;;;;;;;;;;;20.90;99.90;;;;;;5011796;28;20252;-71
2021/09/01 06:26:20;;;;;;;;;;;20.90;99.90;;;;;;5012879;28;20303;-70
2021/09/01 06:28:46;;;;;;;;;;;20.90;99.90;;;;;;5012179;28;20024;-72
2021/09/01 06:31:11;;;;;;;;;;;20.90;99.90;;;;;;5013134;28;19909;-68
2021/09/01 06:33:37;;;;;;;;;;;21.00;99.90;;;;;;5011903;28;19999;-67
2021/09/01 06:36:03;;;;;;;;;;;21.10;99.90;;;;;;5012029;28;20004;-68
2021/09/01 06:38:28;;;;;;;;;;;21.20;99.90;;;;;;5012959;28;20473;-67
2021/09/01 06:40:54;;;;;;;;;;;21.30;99.90;;;;;;5011292;28;19944;-67
2021/09/01 06:43:20;;;;;;;;;;;21.30;99.90;;;;;;5011131;28;19913;-68
2021/09/01 06:45:46;;;;;;;;;;;21.40;99.90;;;;;;5012523;28;19906;-69
2021/09/01 06:48:12;;;;;;;;;;;21.40;99.90;;;;;;5011610;28;19955;-68
2021/09/01 06:50:38;;;;;;;;;;;21.30;99.90;;;;;;5010339;28;19937;-68
2021/09/01 06:53:03;;;;;;;;;;;21.30;99.90;;;;;;5012762;28;20364;-68
2021/09/01 06:55:29;;;;;;;;;;;21.30;99.90;;;;;;5009662;28;19967;-68
2021/09/01 06:57:55;;;;;;;;;;;21.30;99.90;;;;;;5011189;28;19913;-69
2021/09/01 07:00:20;;;;;;;;;;;21.30;99.90;;;;;;5012228;28;20300;-68
2021/09/01 07:02:46;;;;;;;;;;;21.40;99.90;;;;;;5012127;28;19909;-67
2021/09/01 07:05:14;;;;;;;;;;;21.50;99.90;;;;;;5011416;28;19975;-68
2021/09/01 07:07:41;;;;;;;;;;;21.50;99.90;;;;;;5011444;28;19913;-68
2021/09/01 07:10:06;;;;;;;;;;;21.60;99.90;;;;;;5010566;28;19917;-69
2021/09/01 07:12:32;;;;;;;;;;;21.70;99.90;;;;;;5008216;28;19924;-68
2021/09/01 07:14:58;;;;;;;;;;;21.80;99.90;;;;;;5011131;28;19909;-68
2021/09/01 07:17:23;;;;;;;;;;;21.80;99.90;;;;;;5012060;28;20502;-70
2021/09/01 07:19:49;;;;;;;;;;;22.00;99.90;;;;;;5027452;28;19959;-69
2021/09/01 07:22:14;;;;;;;;;;;22.10;99.90;;;;;;5010945;28;20390;-70
2021/09/01 07:24:40;;;;;;;;;;;22.30;99.90;;;;;;5007314;28;19928;-70
2021/09/01 07:27:06;;;;;;;;;;;22.40;99.90;;;;;;5012765;28;19915;-69
2021/09/01 07:29:31;;;;;;;;;;;22.60;99.90;;;;;;5009790;28;19910;-69
2021/09/01 07:31:57;;;;;;;;;;;22.70;99.90;;;;;;5011933;28;19927;-70
2021/09/01 07:34:23;;;;;;;;;;;22.70;99.90;;;;;;5010694;28;19910;-69
2021/09/01 07:36:48;;;;;;;;;;;22.60;99.90;;;;;;5010548;28;19928;-70
2021/09/01 07:39:14;;;;;;;;;;;22.60;99.90;;;;;;5012345;28;19959;-69
2021/09/01 07:41:40;;;;;;;;;;;22.60;99.90;;;;;;5010806;28;19913;-68
2021/09/01 07:44:05;;;;;;;;;;;22.50;99.90;;;;;;5009741;28;19939;-70
2021/09/01 07:46:31;;;;;;;;;;;22.40;99.90;;;;;;5012473;28;19906;-70
2021/09/01 07:49:00;;;;;;;;;;;22.50;99.90;;;;;;5011426;28;19917;-70
2021/09/01 07:51:26;;;;;;;;;;;22.60;99.90;;;;;;5011756;28;20431;-69
2021/09/01 07:53:51;;;;;;;;;;;22.80;99.90;;;;;;5010042;28;20019;-70
2021/09/01 07:56:17;;;;;;;;;;;23.00;99.90;;;;;;5012613;28;20051;-70
2021/09/01 07:58:42;;;;;;;;;;;23.20;99.90;;;;;;5012645;28;19909;-70
2021/09/01 08:01:08;;;;;;;;;;;23.40;99.90;;;;;;5010257;28;20367;-70
2021/09/01 08:03:34;;;;;;;;;;;23.50;99.90;;;;;;5008167;28;19925;-69
2021/09/01 08:06:00;;;;;;;;;;;23.60;99.90;;;;;;5011892;28;20426;-70
2021/09/01 08:08:25;;;;;;;;;;;23.60;99.90;;;;;;5011032;28;20384;-67
2021/09/01 08:10:51;;;;;;;;;;;23.60;99.90;;;;;;5010581;28;19932;-67
2021/09/01 08:13:17;;;;;;;;;;;23.60;99.90;;;;;;5007490;28;20023;-68
2021/09/01 08:15:43;;;;;;;;;;;23.60;99.90;;;;;;5011273;28;19913;-69
2021/09/01 08:18:08;;;;;;;;;;;23.80;99.90;;;;;;5009644;28;20426;-69
2021/09/01 08:20:34;;;;;;;;;;;23.90;99.90;;;;;;5010144;28;19913;-67
2021/09/01 08:22:59;;;;;;;;;;;24.10;99.90;;;;;;5011649;28;19905;-69
2021/09/01 08:25:25;;;;;;;;;;;24.20;99.90;;;;;;5011013;28;19913;-68
2021/09/01 08:27:51;;;;;;;;;;;24.30;99.90;;;;;;5011196;28;19913;-68
2021/09/01 08:30:16;;;;;;;;;;;24.20;99.90;;;;;;5009001;28;20382;-67
2021/09/01 08:32:42;;;;;;;;;;;24.40;99.90;;;;;;5010483;28;19992;-68
2021/09/01 08:35:09;;;;;;;;;;;24.30;99.90;;;;;;5010919;28;19956;-69
2021/09/01 08:37:35;;;;;;;;;;;24.40;99.90;;;;;;5006810;28;19976;-68
2021/09/01 08:40:01;;;;;;;;;;;24.10;99.90;;;;;;5010778;28;19910;-68
2021/09/01 08:42:27;;;;;;;;;;;23.90;99.90;;;;;;5009517;28;19972;-68
2021/09/01 08:44:53;;;;;;;;;;;23.90;99.90;;;;;;5009138;28;19957;-69
2021/09/01 08:47:19;;;;;;;;;;;23.90;99.90;;;;;;5010115;28;19909;-69
2021/09/01 08:49:46;;;;;;;;;;;23.90;99.90;;;;;;5011683;28;19921;-68
2021/09/01 08:52:12;;;;;;;;;;;23.70;99.90;;;;;;5009194;28;19917;-70
2021/09/01 08:54:37;;;;;;;;;;;23.70;99.90;;;;;;5010820;28;19967;-71
2021/09/01 08:57:03;;;;;;;;;;;23.70;99.90;;;;;;5009935;28;19963;-73
2021/09/01 08:59:29;;;;;;;;;;;23.70;99.90;;;;;;5009000;28;19909;-72
2021/09/01 09:01:55;;;;;;;;;;;23.60;99.90;;;;;;5010054;28;19916;-75
2021/09/01 09:04:25;;;;;;;;;;;23.60;99.90;;;;;;5010237;28;19917;-71
2021/09/01 09:06:51;;;;;;;;;;;23.70;99.90;;;;;;5011225;28;19905;-72
2021/09/01 09:09:20;;;;;;;;;;;23.80;99.90;;;;;;5011447;28;19909;-72
2021/09/01 09:11:46;;;;;;;;;;;24.00;99.90;;;;;;5009860;28;19909;-68
2021/09/01 09:14:24;;;;;;;;;;;24.00;99.90;;;;;;5010659;28;20435;-74
2021/09/01 09:17:02;;;;;;;;;;;23.90;99.90;;;;;;5011084;28;19929;-74
2021/09/01 09:19:47;;;;;;;;;;;23.90;99.90;;;;;;5010938;28;19913;-71
2021/09/01 09:22:13;;;;;;;;;;;23.90;99.90;;;;;;5007404;28;19909;-71
2021/09/01 09:24:39;;;;;;;;;;;24.00;99.90;;;;;;5008844;28;19955;-73
2021/09/01 09:27:05;;;;;;;;;;;24.00;99.90;;;;;;5010219;28;20395;-73
2021/09/01 09:29:31;;;;;;;;;;;23.90;99.90;;;;;;5009337;28;20351;-71
2021/09/01 09:32:01;;;;;;;;;;;24.00;99.90;;;;;;5015430;28;19906;-74
2021/09/01 09:34:34;;;;;;;;;;;24.10;99.90;;;;;;5015899;28;20320;-73
2021/09/01 09:37:06;;;;;;;;;;;24.00;99.90;;;;;;5020437;28;20324;-68
2021/09/01 09:39:38;;;;;;;;;;;23.90;99.90;;;;;;5007076;28;19953;-68
2021/09/01 09:42:04;;;;;;;;;;;24.00;99.90;;;;;;5006079;28;19960;-70
2021/09/01 09:44:29;;;;;;;;;;;23.90;99.90;;;;;;5008696;28;20292;-71
2021/09/01 09:46:55;;;;;;;;;;;24.00;99.90;;;;;;5001711;28;19906;-69
2021/09/01 09:49:26;;;;;;;;;;;24.00;99.90;;;;;;5009196;28;19953;-69
2021/09/01 09:51:52;;;;;;;;;;;24.00;99.90;;;;;;5008608;28;20564;-68
2021/09/01 09:54:19;;;;;;;;;;;23.80;99.90;;;;;;5008640;28;19909;-70
2021/09/01 09:56:45;;;;;;;;;;;23.80;99.90;;;;;;5008964;28;20003;-68
2021/09/01 09:59:15;;;;;;;;;;;23.70;99.90;;;;;;5006201;28;20403;-67
2021/09/01 10:01:40;;;;;;;;;;;23.80;99.90;;;;;;5004709;28;19952;-68
2021/09/01 10:04:06;;;;;;;;;;;23.80;99.90;;;;;;5007131;28;20016;-66
2021/09/01 10:06:32;;;;;;;;;;;23.60;99.90;;;;;;5008025;28;20265;-67
2021/09/01 10:08:57;;;;;;;;;;;23.60;99.90;;;;;;5003014;28;19909;-67
2021/09/01 10:11:24;;;;;;;;;;;23.70;99.90;;;;;;5005996;28;19906;-68
2021/09/01 10:13:51;;;;;;;;;;;23.80;99.90;;;;;;5007698;28;19924;-68
2021/09/01 10:16:20;;;;;;;;;;;23.90;99.90;;;;;;5005289;28;20582;-67
2021/09/01 10:19:04;;;;;;;;;;;23.80;99.90;;;;;;5002544;28;20393;-67
2021/09/01 10:21:32;;;;;;;;;;;23.80;99.90;;;;;;5009384;28;20410;-67
2021/09/01 10:24:14;;;;;;;;;;;23.70;99.90;;;;;;5007994;28;19913;-68
2021/09/01 10:26:40;;;;;;;;;;;23.70;99.90;;;;;;5002319;28;20631;-68
2021/09/01 10:29:25;;;;;;;;;;;23.60;99.90;;;;;;5008468;28;20028;-67
2021/09/01 10:32:11;;;;;;;;;;;23.60;99.90;;;;;;5005466;28;19940;-67
2021/09/01 10:34:36;;;;;;;;;;;23.60;99.90;;;;;;5004030;28;19917;-68
2021/09/01 10:37:02;;;;;;;;;;;23.70;99.90;;;;;;5010623;28;19940;-69
2021/09/01 10:39:28;;;;;;;;;;;23.80;99.90;;;;;;5009844;28;19956;-67
2021/09/01 10:41:53;;;;;;;;;;;23.90;99.90;;;;;;5010614;28;19910;-69
2021/09/01 10:44:42;;;;;;;;;;;23.90;99.90;;;;;;5007909;28;20375;-67
2021/09/01 10:47:08;;;;;;;;;;;24.00;99.90;;;;;;5005473;28;19916;-68
2021/09/01 10:49:52;;;;;;;;;;;24.10;99.90;;;;;;5009673;28;19912;-68
2021/09/01 10:52:17;;;;;;;;;;;24.30;99.90;;;;;;5007256;28;19991;-69
2021/09/01 10:54:45;;;;;;;;;;;24.30;99.90;;;;;;5007920;28;19952;-69
2021/09/01 10:57:27;;;;;;;;;;;24.40;99.90;;;;;;5007275;28;19915;-69
2021/09/01 10:59:56;;;;;;;;;;;24.40;99.90;;;;;;5010615;28;19910;-69
2021/09/01 11:02:22;;;;;;;;;;;24.40;99.90;;;;;;5011396;28;20248;-69
2021/09/01 11:04:52;;;;;;;;;;;24.40;99.90;;;;;;5012927;28;19916;-70
2021/09/01 11:07:22;;;;;;;;;;;24.50;99.90;;;;;;5011609;28;20351;-69
2021/09/01 11:09:52;;;;;;;;;;;24.70;99.90;;;;;;5012017;28;19910;-70
2021/09/01 11:12:17;;;;;;;;;;;24.60;99.90;;;;;;5011602;28;19913;-70
2021/09/01 11:14:46;;;;;;;;;;;24.60;99.90;;;;;;5012448;28;19910;-70
2021/09/01 11:17:12;;;;;;;;;;;24.60;99.90;;;;;;5009393;28;19915;-67
2021/09/01 11:19:39;;;;;;;;;;;24.70;99.90;;;;;;5012658;28;20005;-67
2021/09/01 11:22:06;;;;;;;;;;;24.80;99.90;;;;;;5013302;28;19914;-68
2021/09/01 11:24:41;;;;;;;;;;;24.80;99.90;;;;;;5012739;28;20013;-67
2021/09/01 11:27:09;;;;;;;;;;;24.80;99.90;;;;;;5012822;28;20371;-68
2021/09/01 11:29:35;;;;;;;;;;;24.80;99.90;;;;;;5006661;28;19909;-68
2021/09/01 11:32:01;;;;;;;;;;;24.80;99.90;;;;;;5027305;28;19935;-67
2021/09/01 11:34:54;;;;;;;;;;;24.80;99.90;;;;;;5008730;28;19913;-71
2021/09/01 11:37:22;;;;;;;;;;;24.60;99.90;;;;;;5009404;28;20074;-70
2021/09/01 11:39:49;;;;;;;;;;;24.60;99.90;;;;;;5010992;28;20435;-69
2021/09/01 11:42:15;;;;;;;;;;;24.70;99.90;;;;;;5010273;28;20000;-68
2021/09/01 11:44:41;;;;;;;;;;;24.80;99.90;;;;;;5010702;28;20036;-69
2021/09/01 11:47:16;;;;;;;;;;;24.90;99.90;;;;;;5009906;28;20364;-68
2021/09/01 11:49:42;;;;;;;;;;;25.00;99.90;;;;;;5008193;28;19909;-68
2021/09/01 11:52:07;;;;;;;;;;;25.00;99.90;;;;;;5008468;28;20352;-68
2021/09/01 11:54:37;;;;;;;;;;;24.90;99.90;;;;;;5010036;28;19956;-68
2021/09/01 11:57:03;;;;;;;;;;;24.80;99.90;;;;;;5012206;28;19906;-72
2021/09/01 11:59:29;;;;;;;;;;;24.90;99.90;;;;;;5009164;28;19918;-73
2021/09/01 12:01:56;;;;;;;;;;;25.00;99.90;;;;;;5012676;28;19910;-74
2021/09/01 12:04:22;;;;;;;;;;;24.90;99.90;;;;;;5010471;28;19921;-74
2021/09/01 12:06:51;;;;;;;;;;;24.80;99.90;;;;;;5010793;28;19909;-73
2021/09/01 12:09:17;;;;;;;;;;;24.80;99.90;;;;;;5011715;28;19913;-72
2021/09/01 12:11:55;;;;;;;;;;;24.80;99.90;;;;;;5009492;28;19916;-72
2021/09/01 12:14:23;;;;;;;;;;;24.80;99.90;;;;;;5010164;28;19952;-72
2021/09/01 12:16:49;;;;;;;;;;;24.80;99.90;;;;;;5009751;28;19916;-71
2021/09/01 12:19:15;;;;;;;;;;;24.90;99.90;;;;;;5011928;28;19997;-72
2021/09/01 12:21:46;;;;;;;;;;;24.90;99.90;;;;;;5012196;28;19949;-71
2021/09/01 12:24:13;;;;;;;;;;;24.80;99.90;;;;;;5010377;28;19920;-72
2021/09/01 12:26:49;;;;;;;;;;;24.70;99.90;;;;;;5010647;28;19910;-72
2021/09/01 12:29:23;;;;;;;;;;;24.70;99.90;;;;;;5008088;28;20093;-72
2021/09/01 12:31:53;;;;;;;;;;;24.80;99.90;;;;;;5010289;28;19918;-70
2021/09/01 12:34:29;;;;;;;;;;;24.80;99.90;;;;;;5009333;28;19909;-71
2021/09/01 12:36:59;;;;;;;;;;;24.80;99.90;;;;;;5010047;28;19940;-72
2021/09/01 12:39:24;;;;;;;;;;;24.80;99.90;;;;;;5010452;28;20012;-71
2021/09/01 12:41:50;;;;;;;;;;;24.80;99.90;;;;;;5013029;28;19912;-72
2021/09/01 12:44:16;;;;;;;;;;;24.90;99.90;;;;;;5009726;28;19913;-71
2021/09/01 12:46:42;;;;;;;;;;;24.90;99.90;;;;;;5011226;28;19910;-70
2021/09/01 12:49:26;;;;;;;;;;;24.90;99.90;;;;;;5011486;28;19905;-70
2021/09/01 12:51:51;;;;;;;;;;;24.90;99.90;;;;;;5010518;28;20418;-70
2021/09/01 12:54:22;;;;;;;;;;;25.00;99.90;;;;;;5009521;28;19914;-71
2021/09/01 12:56:51;;;;;;;;;;;25.10;99.90;;;;;;5008118;28;20065;-72
2021/09/01 12:59:17;;;;;;;;;;;25.30;99.90;;;;;;5008303;28;20405;-71
2021/09/01 13:01:43;;;;;;;;;;;25.40;99.90;;;;;;5011410;28;20068;-72
2021/09/01 13:04:08;;;;;;;;;;;25.40;99.90;;;;;;5008922;28;19918;-70
2021/09/01 13:06:34;;;;;;;;;;;25.40;99.90;;;;;;5003295;28;19913;-69
2021/09/01 13:08:59;;;;;;;;;;;25.40;99.90;;;;;;5008121;28;19953;-68
2021/09/01 13:11:25;;;;;;;;;;;25.40;99.90;;;;;;5009552;28;19906;-69
2021/09/01 13:13:51;;;;;;;;;;;25.40;99.90;;;;;;5008269;28;20376;-71
2021/09/01 13:16:16;;;;;;;;;;;25.40;99.90;;;;;;5010240;28;20392;-69
2021/09/01 13:18:42;;;;;;;;;;;25.40;99.90;;;;;;5010517;28;19906;-68
2021/09/01 13:21:08;;;;;;;;;;;25.30;99.90;;;;;;5010157;28;19913;-69
2021/09/01 13:23:33;;;;;;;;;;;25.30;99.90;;;;;;5009630;28;19913;-73
2021/09/01 13:25:59;;;;;;;;;;;25.30;99.90;;;;;;5009190;28;19905;-70
2021/09/01 13:28:24;;;;;;;;;;;25.30;99.90;;;;;;5009965;28;19916;-70
2021/09/01 13:30:50;;;;;;;;;;;25.30;99.90;;;;;;5009149;28;19932;-69
2021/09/01 13:33:16;;;;;;;;;;;25.50;99.90;;;;;;5009293;28;19906;-71
2021/09/01 13:35:41;;;;;;;;;;;25.50;99.90;;;;;;5007771;28;19909;-70
2021/09/01 13:38:07;;;;;;;;;;;25.50;99.90;;;;;;5008497;28;19955;-70
2021/09/01 13:40:33;;;;;;;;;;;25.50;99.90;;;;;;5009504;28;20483;-71
2021/09/01 13:42:59;;;;;;;;;;;25.50;99.90;;;;;;5009861;28;19914;-72
2021/09/01 13:45:25;;;;;;;;;;;25.50;99.90;;;;;;5008407;28;19921;-70
2021/09/01 13:47:50;;;;;;;;;;;25.50;99.90;;;;;;5009808;28;20568;-70
2021/09/01 13:50:16;;;;;;;;;;;25.40;99.90;;;;;;5008182;28;19910;-68
2021/09/01 13:52:41;;;;;;;;;;;25.30;99.90;;;;;;5008846;28;19912;-71
2021/09/01 13:55:07;;;;;;;;;;;25.40;99.90;;;;;;5010581;28;19959;-71
2021/09/01 13:57:33;;;;;;;;;;;25.50;99.90;;;;;;5008277;28;19905;-69
2021/09/01 14:00:01;;;;;;;;;;;25.60;99.90;;;;;;5009807;28;19919;-70
2021/09/01 14:02:26;;;;;;;;;;;25.60;99.90;;;;;;5009931;28;19906;-70
2021/09/01 14:04:52;;;;;;;;;;;25.60;99.90;;;;;;5008391;28;19987;-70
2021/09/01 14:07:17;;;;;;;;;;;25.60;99.90;;;;;;5009045;28;19906;-69
2021/09/01 14:09:43;;;;;;;;;;;25.60;99.90;;;;;;5007155;28;19909;-70
2021/09/01 14:12:09;;;;;;;;;;;25.60;99.90;;;;;;5011018;28;19945;-71
2021/09/01 14:14:35;;;;;;;;;;;25.60;99.90;;;;;;5010866;28;19913;-69